sensor_id;sensor_type;location;lat;lon;timestamp;P1;durP1;ratioP1;P2;durP2;ratioP2
15307;SDS011;7755;52.208;6.964;2022-09-09T00:00:21;4.10;;;2.30;;
15307;SDS011;7755;52.208;6.964;2022-09-09T00:04:25;3.90;;;2.20;;
15307;SDS011;7755;52.208;6.964;2022-09-09T00:08:32;3.37;;;2.13;;
15307;SDS011;7755;52.208;6.964;2022-09-09T00:12:43;2.03;;;1.93;;
15307;SDS011;7755;52.208;6.964;2022-09-09T00:17:00;2.93;;;2.20;;
15307;SDS011;7755;52.208;6.964;2022-09-09T00:21:05;1.87;;;1.77;;
15307;SDS011;7755;52.208;6.964;2022-09-09T00:25:10;2.10;;;1.90;;
15307;SDS011;7755;52.208;6.964;2022-09-09T00:29:14;2.00;;;1.90;;
15307;SDS011;7755;52.208;6.964;2022-09-09T00:33:27;2.43;;;2.23;;
15307;SDS011;7755;52.208;6.964;2022-09-09T00:37:32;3.67;;;2.40;;
15307;SDS011;7755;52.208;6.964;2022-09-09T00:41:39;2.60;;;2.40;;
15307;SDS011;7755;52.208;6.964;2022-09-09T00:50:41;2.77;;;2.57;;
15307;SDS011;7755;52.208;6.964;2022-09-09T00:54:51;2.70;;;2.50;;
15307;SDS011;7755;52.208;6.964;2022-09-09T00:59:02;2.47;;;2.27;;
15307;SDS011;7755;52.208;6.964;2022-09-09T01:03:29;2.60;;;2.40;;
15307;SDS011;7755;52.208;6.964;2022-09-09T01:07:37;3.00;;;2.60;;
15307;SDS011;7755;52.208;6.964;2022-09-09T01:11:49;2.60;;;2.40;;
15307;SDS011;7755;52.208;6.964;2022-09-09T01:15:59;2.90;;;2.33;;
15307;SDS011;7755;52.208;6.964;2022-09-09T01:20:06;3.07;;;2.40;;
15307;SDS011;7755;52.208;6.964;2022-09-09T01:24:24;3.00;;;2.80;;
15307;SDS011;7755;52.208;6.964;2022-09-09T01:28:54;3.40;;;2.47;;
15307;SDS011;7755;52.208;6.964;2022-09-09T01:33:04;3.50;;;3.10;;
15307;SDS011;7755;52.208;6.964;2022-09-09T01:37:07;2.60;;;2.40;;
15307;SDS011;7755;52.208;6.964;2022-09-09T01:41:12;3.00;;;2.70;;
15307;SDS011;7755;52.208;6.964;2022-09-09T01:45:23;3.10;;;2.90;;
15307;SDS011;7755;52.208;6.964;2022-09-09T01:49:26;4.13;;;2.77;;
15307;SDS011;7755;52.208;6.964;2022-09-09T01:53:28;3.00;;;2.80;;
15307;SDS011;7755;52.208;6.964;2022-09-09T01:57:31;3.40;;;2.60;;
15307;SDS011;7755;52.208;6.964;2022-09-09T02:01:42;2.60;;;2.40;;
15307;SDS011;7755;52.208;6.964;2022-09-09T02:05:56;2.43;;;2.30;;
15307;SDS011;7755;52.208;6.964;2022-09-09T02:10:09;3.20;;;3.00;;
15307;SDS011;7755;52.208;6.964;2022-09-09T02:14:19;2.70;;;2.50;;
15307;SDS011;7755;52.208;6.964;2022-09-09T02:18:28;2.73;;;2.53;;
15307;SDS011;7755;52.208;6.964;2022-09-09T02:22:36;3.77;;;3.50;;
15307;SDS011;7755;52.208;6.964;2022-09-09T02:26:41;3.67;;;3.23;;
15307;SDS011;7755;52.208;6.964;2022-09-09T02:30:49;2.90;;;2.70;;
15307;SDS011;7755;52.208;6.964;2022-09-09T02:35:02;3.80;;;3.50;;
15307;SDS011;7755;52.208;6.964;2022-09-09T02:39:08;4.13;;;3.00;;
15307;SDS011;7755;52.208;6.964;2022-09-09T02:43:13;3.90;;;3.60;;
15307;SDS011;7755;52.208;6.964;2022-09-09T02:47:21;3.37;;;2.97;;
15307;SDS011;7755;52.208;6.964;2022-09-09T02:51:35;3.07;;;2.77;;
15307;SDS011;7755;52.208;6.964;2022-09-09T02:55:45;3.73;;;3.43;;
15307;SDS011;7755;52.208;6.964;2022-09-09T02:59:50;3.50;;;3.30;;
15307;SDS011;7755;52.208;6.964;2022-09-09T03:03:53;3.33;;;3.00;;
15307;SDS011;7755;52.208;6.964;2022-09-09T03:07:56;4.33;;;3.93;;
15307;SDS011;7755;52.208;6.964;2022-09-09T03:11:58;4.50;;;4.10;;
15307;SDS011;7755;52.208;6.964;2022-09-09T03:16:02;3.83;;;3.53;;
15307;SDS011;7755;52.208;6.964;2022-09-09T03:20:08;4.40;;;4.10;;
15307;SDS011;7755;52.208;6.964;2022-09-09T03:24:13;4.33;;;3.93;;
15307;SDS011;7755;52.208;6.964;2022-09-09T03:28:15;3.80;;;3.47;;
15307;SDS011;7755;52.208;6.964;2022-09-09T03:32:17;3.60;;;3.40;;
15307;SDS011;7755;52.208;6.964;2022-09-09T03:36:38;4.40;;;4.00;;
15307;SDS011;7755;52.208;6.964;2022-09-09T03:41:00;4.03;;;3.73;;
15307;SDS011;7755;52.208;6.964;2022-09-09T03:45:04;4.40;;;4.00;;
15307;SDS011;7755;52.208;6.964;2022-09-09T03:49:08;4.50;;;4.20;;
15307;SDS011;7755;52.208;6.964;2022-09-09T03:53:10;5.60;;;4.70;;
15307;SDS011;7755;52.208;6.964;2022-09-09T03:57:13;4.57;;;4.17;;
15307;SDS011;7755;52.208;6.964;2022-09-09T04:01:17;4.53;;;4.13;;
15307;SDS011;7755;52.208;6.964;2022-09-09T04:05:19;4.90;;;4.50;;
15307;SDS011;7755;52.208;6.964;2022-09-09T04:09:22;5.63;;;5.23;;
15307;SDS011;7755;52.208;6.964;2022-09-09T04:13:26;4.73;;;4.43;;
15307;SDS011;7755;52.208;6.964;2022-09-09T04:17:31;5.70;;;5.20;;
15307;SDS011;7755;52.208;6.964;2022-09-09T04:21:33;5.40;;;4.90;;
15307;SDS011;7755;52.208;6.964;2022-09-09T04:25:36;6.63;;;6.13;;
15307;SDS011;7755;52.208;6.964;2022-09-09T04:29:40;6.80;;;6.13;;
15307;SDS011;7755;52.208;6.964;2022-09-09T04:33:43;5.50;;;5.03;;
15307;SDS011;7755;52.208;6.964;2022-09-09T04:37:44;6.77;;;6.27;;
15307;SDS011;7755;52.208;6.964;2022-09-09T04:41:46;8.70;;;7.90;;
15307;SDS011;7755;52.208;6.964;2022-09-09T04:45:50;7.17;;;6.53;;
15307;SDS011;7755;52.208;6.964;2022-09-09T04:49:55;9.13;;;8.03;;
15307;SDS011;7755;52.208;6.964;2022-09-09T04:53:57;6.97;;;6.37;;
15307;SDS011;7755;52.208;6.964;2022-09-09T04:58:02;7.60;;;6.97;;
15307;SDS011;7755;52.208;6.964;2022-09-09T05:02:07;8.83;;;7.70;;
15307;SDS011;7755;52.208;6.964;2022-09-09T05:06:09;7.73;;;7.03;;
15307;SDS011;7755;52.208;6.964;2022-09-09T05:10:12;9.37;;;8.43;;
15307;SDS011;7755;52.208;6.964;2022-09-09T05:14:15;10.37;;;9.30;;
15307;SDS011;7755;52.208;6.964;2022-09-09T05:18:19;8.90;;;8.00;;
15307;SDS011;7755;52.208;6.964;2022-09-09T05:22:22;11.30;;;9.13;;
15307;SDS011;7755;52.208;6.964;2022-09-09T05:26:26;9.47;;;7.93;;
15307;SDS011;7755;52.208;6.964;2022-09-09T05:30:30;8.10;;;7.30;;
15307;SDS011;7755;52.208;6.964;2022-09-09T05:34:36;8.80;;;8.10;;
15307;SDS011;7755;52.208;6.964;2022-09-09T05:38:39;7.73;;;7.03;;
15307;SDS011;7755;52.208;6.964;2022-09-09T05:42:43;8.30;;;7.50;;
15307;SDS011;7755;52.208;6.964;2022-09-09T05:46:44;7.57;;;6.77;;
15307;SDS011;7755;52.208;6.964;2022-09-09T05:50:53;7.40;;;6.70;;
15307;SDS011;7755;52.208;6.964;2022-09-09T05:54:55;7.87;;;7.17;;
15307;SDS011;7755;52.208;6.964;2022-09-09T05:58:57;9.33;;;6.90;;
15307;SDS011;7755;52.208;6.964;2022-09-09T06:03:01;11.07;;;7.53;;
15307;SDS011;7755;52.208;6.964;2022-09-09T06:07:05;7.37;;;6.33;;
15307;SDS011;7755;52.208;6.964;2022-09-09T06:11:08;7.90;;;6.57;;
15307;SDS011;7755;52.208;6.964;2022-09-09T06:15:15;8.67;;;6.20;;
15307;SDS011;7755;52.208;6.964;2022-09-09T06:19:17;9.53;;;6.63;;
15307;SDS011;7755;52.208;6.964;2022-09-09T06:23:22;7.83;;;6.37;;
15307;SDS011;7755;52.208;6.964;2022-09-09T06:27:24;6.97;;;6.03;;
15307;SDS011;7755;52.208;6.964;2022-09-09T06:31:29;6.73;;;5.40;;
15307;SDS011;7755;52.208;6.964;2022-09-09T06:35:36;6.90;;;5.43;;
15307;SDS011;7755;52.208;6.964;2022-09-09T06:39:39;6.77;;;5.40;;
15307;SDS011;7755;52.208;6.964;2022-09-09T06:43:41;5.57;;;4.80;;
15307;SDS011;7755;52.208;6.964;2022-09-09T06:47:45;5.93;;;5.37;;
15307;SDS011;7755;52.208;6.964;2022-09-09T06:51:49;7.20;;;4.53;;
15307;SDS011;7755;52.208;6.964;2022-09-09T06:55:54;7.40;;;4.70;;
15307;SDS011;7755;52.208;6.964;2022-09-09T06:59:56;5.40;;;4.57;;
15307;SDS011;7755;52.208;6.964;2022-09-09T07:03:59;7.03;;;4.40;;
15307;SDS011;7755;52.208;6.964;2022-09-09T07:08:02;6.03;;;4.47;;
15307;SDS011;7755;52.208;6.964;2022-09-09T07:12:06;7.03;;;4.70;;
15307;SDS011;7755;52.208;6.964;2022-09-09T07:16:11;4.83;;;4.30;;
15307;SDS011;7755;52.208;6.964;2022-09-09T07:20:14;4.70;;;3.70;;
15307;SDS011;7755;52.208;6.964;2022-09-09T07:24:17;6.43;;;4.00;;
15307;SDS011;7755;52.208;6.964;2022-09-09T07:28:21;6.13;;;4.00;;
15307;SDS011;7755;52.208;6.964;2022-09-09T07:32:24;5.60;;;3.60;;
15307;SDS011;7755;52.208;6.964;2022-09-09T07:36:28;5.70;;;3.20;;
15307;SDS011;7755;52.208;6.964;2022-09-09T07:40:32;6.67;;;3.50;;
15307;SDS011;7755;52.208;6.964;2022-09-09T07:44:36;5.00;;;3.30;;
15307;SDS011;7755;52.208;6.964;2022-09-09T07:48:44;6.50;;;3.93;;
15307;SDS011;7755;52.208;6.964;2022-09-09T07:52:48;5.73;;;3.43;;
15307;SDS011;7755;52.208;6.964;2022-09-09T07:56:50;5.30;;;4.03;;
15307;SDS011;7755;52.208;6.964;2022-09-09T08:00:56;5.43;;;3.77;;
15307;SDS011;7755;52.208;6.964;2022-09-09T08:04:58;6.03;;;3.47;;
15307;SDS011;7755;52.208;6.964;2022-09-09T08:09:00;10.13;;;3.80;;
15307;SDS011;7755;52.208;6.964;2022-09-09T08:13:02;5.50;;;3.63;;
15307;SDS011;7755;52.208;6.964;2022-09-09T08:17:07;7.83;;;3.20;;
15307;SDS011;7755;52.208;6.964;2022-09-09T08:21:10;4.40;;;2.87;;
15307;SDS011;7755;52.208;6.964;2022-09-09T08:25:13;4.97;;;3.30;;
15307;SDS011;7755;52.208;6.964;2022-09-09T08:29:16;6.53;;;3.57;;
15307;SDS011;7755;52.208;6.964;2022-09-09T08:33:20;7.80;;;3.77;;
15307;SDS011;7755;52.208;6.964;2022-09-09T08:37:23;6.83;;;3.90;;
15307;SDS011;7755;52.208;6.964;2022-09-09T08:41:30;8.13;;;3.90;;
15307;SDS011;7755;52.208;6.964;2022-09-09T08:45:43;6.70;;;4.17;;
15307;SDS011;7755;52.208;6.964;2022-09-09T08:50:02;5.97;;;3.50;;
15307;SDS011;7755;52.208;6.964;2022-09-09T08:54:15;9.73;;;4.30;;
15307;SDS011;7755;52.208;6.964;2022-09-09T08:58:19;5.43;;;4.00;;
15307;SDS011;7755;52.208;6.964;2022-09-09T09:02:27;5.53;;;3.60;;
15307;SDS011;7755;52.208;6.964;2022-09-09T09:06:41;8.63;;;3.40;;
15307;SDS011;7755;52.208;6.964;2022-09-09T09:10:53;6.13;;;3.63;;
15307;SDS011;7755;52.208;6.964;2022-09-09T09:14:59;3.63;;;2.83;;
15307;SDS011;7755;52.208;6.964;2022-09-09T09:19:01;3.53;;;2.23;;
15307;SDS011;7755;52.208;6.964;2022-09-09T09:23:09;5.80;;;2.50;;
15307;SDS011;7755;52.208;6.964;2022-09-09T09:27:22;5.03;;;2.27;;
15307;SDS011;7755;52.208;6.964;2022-09-09T09:31:31;4.07;;;2.50;;
15307;SDS011;7755;52.208;6.964;2022-09-09T09:35:34;3.90;;;3.20;;
15307;SDS011;7755;52.208;6.964;2022-09-09T09:39:37;3.10;;;2.20;;
15307;SDS011;7755;52.208;6.964;2022-09-09T09:43:40;2.10;;;1.83;;
15307;SDS011;7755;52.208;6.964;2022-09-09T09:47:46;4.80;;;2.50;;
15307;SDS011;7755;52.208;6.964;2022-09-09T09:52:00;4.23;;;2.80;;
15307;SDS011;7755;52.208;6.964;2022-09-09T09:56:06;5.80;;;2.60;;
15307;SDS011;7755;52.208;6.964;2022-09-09T10:00:12;5.00;;;2.23;;
15307;SDS011;7755;52.208;6.964;2022-09-09T10:04:20;3.70;;;2.03;;
15307;SDS011;7755;52.208;6.964;2022-09-09T10:08:27;2.73;;;2.27;;
15307;SDS011;7755;52.208;6.964;2022-09-09T10:12:34;2.40;;;2.00;;
15307;SDS011;7755;52.208;6.964;2022-09-09T10:16:49;4.33;;;2.17;;
15307;SDS011;7755;52.208;6.964;2022-09-09T10:21:06;3.03;;;2.07;;
15307;SDS011;7755;52.208;6.964;2022-09-09T10:25:21;5.73;;;2.53;;
15307;SDS011;7755;52.208;6.964;2022-09-09T10:29:41;1.93;;;1.80;;
15307;SDS011;7755;52.208;6.964;2022-09-09T10:33:55;3.57;;;2.10;;
15307;SDS011;7755;52.208;6.964;2022-09-09T10:38:09;5.40;;;2.27;;
15307;SDS011;7755;52.208;6.964;2022-09-09T10:42:15;3.70;;;1.80;;
15307;SDS011;7755;52.208;6.964;2022-09-09T10:46:23;3.40;;;1.80;;
15307;SDS011;7755;52.208;6.964;2022-09-09T10:50:39;2.73;;;1.70;;
15307;SDS011;7755;52.208;6.964;2022-09-09T10:54:50;3.27;;;1.80;;
15307;SDS011;7755;52.208;6.964;2022-09-09T10:58:58;2.10;;;1.80;;
15307;SDS011;7755;52.208;6.964;2022-09-09T11:03:05;2.57;;;2.00;;
15307;SDS011;7755;52.208;6.964;2022-09-09T11:07:10;3.80;;;1.97;;
15307;SDS011;7755;52.208;6.964;2022-09-09T11:11:19;4.70;;;1.90;;
15307;SDS011;7755;52.208;6.964;2022-09-09T11:15:28;2.97;;;1.60;;
15307;SDS011;7755;52.208;6.964;2022-09-09T11:19:38;2.90;;;1.40;;
15307;SDS011;7755;52.208;6.964;2022-09-09T11:23:42;3.77;;;1.80;;
15307;SDS011;7755;52.208;6.964;2022-09-09T11:27:54;4.53;;;2.00;;
15307;SDS011;7755;52.208;6.964;2022-09-09T11:32:10;2.27;;;1.87;;
15307;SDS011;7755;52.208;6.964;2022-09-09T11:36:38;5.93;;;2.23;;
15307;SDS011;7755;52.208;6.964;2022-09-09T11:40:54;2.10;;;1.60;;
15307;SDS011;7755;52.208;6.964;2022-09-09T11:45:08;3.37;;;2.07;;
15307;SDS011;7755;52.208;6.964;2022-09-09T11:49:27;2.83;;;1.90;;
15307;SDS011;7755;52.208;6.964;2022-09-09T11:53:33;5.50;;;1.60;;
15307;SDS011;7755;52.208;6.964;2022-09-09T11:57:36;3.93;;;1.73;;
15307;SDS011;7755;52.208;6.964;2022-09-09T12:01:41;7.40;;;1.97;;
15307;SDS011;7755;52.208;6.964;2022-09-09T12:05:45;3.73;;;1.63;;
15307;SDS011;7755;52.208;6.964;2022-09-09T12:09:49;4.80;;;1.90;;
15307;SDS011;7755;52.208;6.964;2022-09-09T12:13:57;5.00;;;1.93;;
15307;SDS011;7755;52.208;6.964;2022-09-09T12:18:00;3.97;;;1.90;;
15307;SDS011;7755;52.208;6.964;2022-09-09T12:22:04;3.63;;;1.80;;
15307;SDS011;7755;52.208;6.964;2022-09-09T12:26:23;3.87;;;1.73;;
15307;SDS011;7755;52.208;6.964;2022-09-09T12:30:32;1.83;;;1.60;;
15307;SDS011;7755;52.208;6.964;2022-09-09T12:34:40;3.30;;;1.77;;
15307;SDS011;7755;52.208;6.964;2022-09-09T12:38:45;4.40;;;1.60;;
15307;SDS011;7755;52.208;6.964;2022-09-09T12:42:49;2.67;;;1.53;;
15307;SDS011;7755;52.208;6.964;2022-09-09T12:46:51;2.73;;;1.60;;
15307;SDS011;7755;52.208;6.964;2022-09-09T12:50:54;4.70;;;1.63;;
15307;SDS011;7755;52.208;6.964;2022-09-09T12:54:58;3.03;;;1.80;;
15307;SDS011;7755;52.208;6.964;2022-09-09T12:59:02;4.33;;;1.70;;
15307;SDS011;7755;52.208;6.964;2022-09-09T13:03:14;6.60;;;2.00;;
15307;SDS011;7755;52.208;6.964;2022-09-09T13:07:18;2.90;;;1.93;;
15307;SDS011;7755;52.208;6.964;2022-09-09T13:11:22;2.33;;;1.73;;
15307;SDS011;7755;52.208;6.964;2022-09-09T13:15:31;4.27;;;2.60;;
15307;SDS011;7755;52.208;6.964;2022-09-09T13:19:34;7.23;;;2.20;;
15307;SDS011;7755;52.208;6.964;2022-09-09T13:23:38;4.13;;;2.67;;
15307;SDS011;7755;52.208;6.964;2022-09-09T13:27:40;5.43;;;2.30;;
15307;SDS011;7755;52.208;6.964;2022-09-09T13:31:45;3.03;;;2.30;;
15307;SDS011;7755;52.208;6.964;2022-09-09T13:35:47;3.67;;;2.30;;
15307;SDS011;7755;52.208;6.964;2022-09-09T13:39:52;4.30;;;2.47;;
15307;SDS011;7755;52.208;6.964;2022-09-09T13:43:55;4.27;;;2.20;;
15307;SDS011;7755;52.208;6.964;2022-09-09T13:47:59;2.10;;;1.90;;
15307;SDS011;7755;52.208;6.964;2022-09-09T13:52:11;1.87;;;1.70;;
15307;SDS011;7755;52.208;6.964;2022-09-09T13:56:15;3.57;;;2.33;;
15307;SDS011;7755;52.208;6.964;2022-09-09T14:00:18;3.57;;;1.83;;
15307;SDS011;7755;52.208;6.964;2022-09-09T14:04:22;2.90;;;2.20;;
15307;SDS011;7755;52.208;6.964;2022-09-09T14:08:24;2.20;;;2.00;;
15307;SDS011;7755;52.208;6.964;2022-09-09T14:12:28;2.33;;;1.70;;
15307;SDS011;7755;52.208;6.964;2022-09-09T14:16:30;3.97;;;2.13;;
15307;SDS011;7755;52.208;6.964;2022-09-09T14:20:33;4.63;;;2.63;;
15307;SDS011;7755;52.208;6.964;2022-09-09T14:24:35;2.40;;;2.23;;
15307;SDS011;7755;52.208;6.964;2022-09-09T14:28:37;3.00;;;2.30;;
15307;SDS011;7755;52.208;6.964;2022-09-09T14:32:40;2.93;;;2.50;;
15307;SDS011;7755;52.208;6.964;2022-09-09T14:36:43;2.90;;;2.20;;
15307;SDS011;7755;52.208;6.964;2022-09-09T14:40:47;3.50;;;2.50;;
15307;SDS011;7755;52.208;6.964;2022-09-09T14:44:49;3.30;;;3.00;;
15307;SDS011;7755;52.208;6.964;2022-09-09T14:48:50;2.90;;;2.47;;
15307;SDS011;7755;52.208;6.964;2022-09-09T14:52:54;4.27;;;3.07;;
15307;SDS011;7755;52.208;6.964;2022-09-09T14:56:55;2.90;;;2.53;;
15307;SDS011;7755;52.208;6.964;2022-09-09T15:01:01;3.33;;;2.77;;
15307;SDS011;7755;52.208;6.964;2022-09-09T15:05:04;3.53;;;2.40;;
15307;SDS011;7755;52.208;6.964;2022-09-09T15:09:08;3.27;;;2.60;;
15307;SDS011;7755;52.208;6.964;2022-09-09T15:13:10;2.67;;;2.47;;
15307;SDS011;7755;52.208;6.964;2022-09-09T15:17:12;3.00;;;2.33;;
15307;SDS011;7755;52.208;6.964;2022-09-09T15:21:14;2.73;;;2.37;;
15307;SDS011;7755;52.208;6.964;2022-09-09T15:25:20;3.47;;;2.50;;
15307;SDS011;7755;52.208;6.964;2022-09-09T15:29:22;2.70;;;2.50;;
15307;SDS011;7755;52.208;6.964;2022-09-09T15:33:24;3.23;;;2.40;;
15307;SDS011;7755;52.208;6.964;2022-09-09T15:37:25;2.50;;;2.30;;
15307;SDS011;7755;52.208;6.964;2022-09-09T15:41:28;4.17;;;2.50;;
15307;SDS011;7755;52.208;6.964;2022-09-09T15:45:31;2.97;;;2.67;;
15307;SDS011;7755;52.208;6.964;2022-09-09T15:49:33;3.50;;;2.80;;
15307;SDS011;7755;52.208;6.964;2022-09-09T15:53:35;2.80;;;2.47;;
15307;SDS011;7755;52.208;6.964;2022-09-09T15:57:40;3.57;;;2.83;;
15307;SDS011;7755;52.208;6.964;2022-09-09T16:01:42;4.17;;;2.83;;
15307;SDS011;7755;52.208;6.964;2022-09-09T16:05:44;3.90;;;2.50;;
15307;SDS011;7755;52.208;6.964;2022-09-09T16:09:45;3.70;;;2.10;;
15307;SDS011;7755;52.208;6.964;2022-09-09T16:13:49;3.77;;;3.00;;
15307;SDS011;7755;52.208;6.964;2022-09-09T16:17:52;3.17;;;2.27;;
15307;SDS011;7755;52.208;6.964;2022-09-09T16:21:54;2.63;;;2.17;;
15307;SDS011;7755;52.208;6.964;2022-09-09T16:25:56;2.50;;;2.30;;
15307;SDS011;7755;52.208;6.964;2022-09-09T16:30:00;3.17;;;2.70;;
15307;SDS011;7755;52.208;6.964;2022-09-09T16:34:01;3.40;;;3.10;;
15307;SDS011;7755;52.208;6.964;2022-09-09T16:38:04;4.03;;;3.50;;
15307;SDS011;7755;52.208;6.964;2022-09-09T16:42:07;6.40;;;4.47;;
15307;SDS011;7755;52.208;6.964;2022-09-09T16:46:12;5.10;;;4.10;;
15307;SDS011;7755;52.208;6.964;2022-09-09T16:50:16;5.20;;;4.17;;
15307;SDS011;7755;52.208;6.964;2022-09-09T16:54:18;9.63;;;5.40;;
15307;SDS011;7755;52.208;6.964;2022-09-09T16:58:20;5.87;;;5.03;;
15307;SDS011;7755;52.208;6.964;2022-09-09T17:02:23;8.63;;;5.80;;
15307;SDS011;7755;52.208;6.964;2022-09-09T17:06:25;5.27;;;3.53;;
15307;SDS011;7755;52.208;6.964;2022-09-09T17:10:27;2.83;;;2.60;;
15307;SDS011;7755;52.208;6.964;2022-09-09T17:14:28;4.57;;;3.07;;
15307;SDS011;7755;52.208;6.964;2022-09-09T17:18:33;3.83;;;2.57;;
15307;SDS011;7755;52.208;6.964;2022-09-09T17:22:35;6.20;;;3.37;;
15307;SDS011;7755;52.208;6.964;2022-09-09T17:26:37;3.43;;;3.13;;
15307;SDS011;7755;52.208;6.964;2022-09-09T17:30:39;3.20;;;2.90;;
15307;SDS011;7755;52.208;6.964;2022-09-09T17:34:43;4.20;;;2.80;;
15307;SDS011;7755;52.208;6.964;2022-09-09T17:38:46;3.77;;;2.60;;
15307;SDS011;7755;52.208;6.964;2022-09-09T17:42:48;2.97;;;2.40;;
15307;SDS011;7755;52.208;6.964;2022-09-09T17:46:50;2.73;;;2.30;;
15307;SDS011;7755;52.208;6.964;2022-09-09T17:50:58;3.13;;;2.73;;
15307;SDS011;7755;52.208;6.964;2022-09-09T17:55:00;4.63;;;2.70;;
15307;SDS011;7755;52.208;6.964;2022-09-09T17:59:02;4.40;;;3.00;;
15307;SDS011;7755;52.208;6.964;2022-09-09T18:03:06;3.27;;;2.97;;
15307;SDS011;7755;52.208;6.964;2022-09-09T18:07:09;3.37;;;3.07;;
15307;SDS011;7755;52.208;6.964;2022-09-09T18:11:13;2.83;;;2.63;;
15307;SDS011;7755;52.208;6.964;2022-09-09T18:15:15;3.20;;;2.90;;
15307;SDS011;7755;52.208;6.964;2022-09-09T18:19:18;3.90;;;3.50;;
15307;SDS011;7755;52.208;6.964;2022-09-09T18:23:23;4.47;;;3.20;;
15307;SDS011;7755;52.208;6.964;2022-09-09T18:27:25;4.00;;;3.67;;
15307;SDS011;7755;52.208;6.964;2022-09-09T18:31:28;5.10;;;4.40;;
15307;SDS011;7755;52.208;6.964;2022-09-09T18:35:30;5.10;;;3.60;;
15307;SDS011;7755;52.208;6.964;2022-09-09T18:39:33;4.50;;;4.10;;
15307;SDS011;7755;52.208;6.964;2022-09-09T18:43:34;4.53;;;4.13;;
15307;SDS011;7755;52.208;6.964;2022-09-09T18:47:36;5.30;;;4.87;;
15307;SDS011;7755;52.208;6.964;2022-09-09T18:51:39;5.23;;;4.53;;
15307;SDS011;7755;52.208;6.964;2022-09-09T18:55:43;5.03;;;4.63;;
15307;SDS011;7755;52.208;6.964;2022-09-09T18:59:45;4.07;;;3.77;;
15307;SDS011;7755;52.208;6.964;2022-09-09T19:03:48;3.67;;;3.00;;
15307;SDS011;7755;52.208;6.964;2022-09-09T19:07:50;3.13;;;2.93;;
15307;SDS011;7755;52.208;6.964;2022-09-09T19:11:53;2.50;;;2.30;;
15307;SDS011;7755;52.208;6.964;2022-09-09T19:15:55;2.33;;;2.20;;
15307;SDS011;7755;52.208;6.964;2022-09-09T19:19:57;3.60;;;3.40;;
15307;SDS011;7755;52.208;6.964;2022-09-09T19:24:00;3.67;;;3.47;;
15307;SDS011;7755;52.208;6.964;2022-09-09T19:28:06;5.03;;;4.53;;
15307;SDS011;7755;52.208;6.964;2022-09-09T19:32:07;5.00;;;4.70;;
15307;SDS011;7755;52.208;6.964;2022-09-09T19:36:10;8.23;;;7.47;;
15307;SDS011;7755;52.208;6.964;2022-09-09T19:40:13;7.60;;;7.00;;
15307;SDS011;7755;52.208;6.964;2022-09-09T19:44:16;7.80;;;7.20;;
15307;SDS011;7755;52.208;6.964;2022-09-09T19:48:18;6.60;;;6.17;;
15307;SDS011;7755;52.208;6.964;2022-09-09T19:52:20;8.40;;;7.77;;
15307;SDS011;7755;52.208;6.964;2022-09-09T19:56:23;8.07;;;7.27;;
15307;SDS011;7755;52.208;6.964;2022-09-09T20:00:27;7.03;;;6.53;;
15307;SDS011;7755;52.208;6.964;2022-09-09T20:04:29;6.97;;;6.20;;
15307;SDS011;7755;52.208;6.964;2022-09-09T20:08:31;7.73;;;7.10;;
15307;SDS011;7755;52.208;6.964;2022-09-09T20:12:32;7.80;;;7.10;;
15307;SDS011;7755;52.208;6.964;2022-09-09T20:16:36;7.10;;;6.57;;
15307;SDS011;7755;52.208;6.964;2022-09-09T20:20:39;7.07;;;6.53;;
15307;SDS011;7755;52.208;6.964;2022-09-09T20:24:41;6.13;;;5.63;;
15307;SDS011;7755;52.208;6.964;2022-09-09T20:28:43;7.33;;;6.83;;
15307;SDS011;7755;52.208;6.964;2022-09-09T20:32:47;8.93;;;8.33;;
15307;SDS011;7755;52.208;6.964;2022-09-09T20:36:49;8.57;;;7.87;;
15307;SDS011;7755;52.208;6.964;2022-09-09T20:40:52;8.53;;;7.90;;
15307;SDS011;7755;52.208;6.964;2022-09-09T20:44:54;10.03;;;9.33;;
15307;SDS011;7755;52.208;6.964;2022-09-09T20:48:57;12.30;;;11.30;;
15307;SDS011;7755;52.208;6.964;2022-09-09T20:53:00;12.00;;;11.17;;
15307;SDS011;7755;52.208;6.964;2022-09-09T20:57:02;11.83;;;10.87;;
15307;SDS011;7755;52.208;6.964;2022-09-09T21:01:06;9.90;;;9.17;;
15307;SDS011;7755;52.208;6.964;2022-09-09T21:05:09;11.53;;;10.63;;
15307;SDS011;7755;52.208;6.964;2022-09-09T21:09:11;11.80;;;10.83;;
15307;SDS011;7755;52.208;6.964;2022-09-09T21:13:14;13.60;;;12.37;;
15307;SDS011;7755;52.208;6.964;2022-09-09T21:17:16;11.40;;;10.50;;
15307;SDS011;7755;52.208;6.964;2022-09-09T21:21:20;12.17;;;11.20;;
15307;SDS011;7755;52.208;6.964;2022-09-09T21:25:21;12.20;;;11.10;;
15307;SDS011;7755;52.208;6.964;2022-09-09T21:29:23;10.83;;;10.03;;
15307;SDS011;7755;52.208;6.964;2022-09-09T21:33:25;12.10;;;11.10;;
15307;SDS011;7755;52.208;6.964;2022-09-09T21:37:29;11.13;;;10.23;;
15307;SDS011;7755;52.208;6.964;2022-09-09T21:41:31;9.37;;;8.67;;
15307;SDS011;7755;52.208;6.964;2022-09-09T21:45:33;7.80;;;7.10;;
15307;SDS011;7755;52.208;6.964;2022-09-09T21:49:35;9.13;;;8.33;;
15307;SDS011;7755;52.208;6.964;2022-09-09T21:53:38;7.83;;;7.23;;
15307;SDS011;7755;52.208;6.964;2022-09-09T21:57:40;7.60;;;6.90;;
15307;SDS011;7755;52.208;6.964;2022-09-09T22:01:42;8.00;;;7.30;;
15307;SDS011;7755;52.208;6.964;2022-09-09T22:05:46;8.87;;;8.03;;
15307;SDS011;7755;52.208;6.964;2022-09-09T22:09:49;8.70;;;7.90;;
15307;SDS011;7755;52.208;6.964;2022-09-09T22:13:51;7.83;;;7.17;;
15307;SDS011;7755;52.208;6.964;2022-09-09T22:17:53;7.93;;;7.33;;
15307;SDS011;7755;52.208;6.964;2022-09-09T22:21:55;6.90;;;6.37;;
15307;SDS011;7755;52.208;6.964;2022-09-09T22:25:58;7.67;;;7.07;;
15307;SDS011;7755;52.208;6.964;2022-09-09T22:30:00;9.03;;;8.13;;
15307;SDS011;7755;52.208;6.964;2022-09-09T22:34:02;7.63;;;6.93;;
15307;SDS011;7755;52.208;6.964;2022-09-09T22:38:05;7.57;;;6.97;;
15307;SDS011;7755;52.208;6.964;2022-09-09T22:42:08;6.93;;;6.33;;
15307;SDS011;7755;52.208;6.964;2022-09-09T22:46:10;7.37;;;6.67;;
15307;SDS011;7755;52.208;6.964;2022-09-09T22:50:12;6.80;;;6.10;;
15307;SDS011;7755;52.208;6.964;2022-09-09T22:54:14;7.63;;;6.93;;
15307;SDS011;7755;52.208;6.964;2022-09-09T22:58:22;7.30;;;6.70;;
15307;SDS011;7755;52.208;6.964;2022-09-09T23:02:23;7.50;;;6.90;;
15307;SDS011;7755;52.208;6.964;2022-09-09T23:06:26;7.50;;;6.77;;
15307;SDS011;7755;52.208;6.964;2022-09-09T23:10:29;7.43;;;6.27;;
15307;SDS011;7755;52.208;6.964;2022-09-09T23:14:33;7.70;;;7.00;;
15307;SDS011;7755;52.208;6.964;2022-09-09T23:18:35;7.73;;;7.00;;
15307;SDS011;7755;52.208;6.964;2022-09-09T23:22:39;6.63;;;6.00;;
15307;SDS011;7755;52.208;6.964;2022-09-09T23:26:41;7.47;;;6.77;;
15307;SDS011;7755;52.208;6.964;2022-09-09T23:30:45;8.37;;;6.37;;
15307;SDS011;7755;52.208;6.964;2022-09-09T23:34:47;7.70;;;7.00;;
15307;SDS011;7755;52.208;6.964;2022-09-09T23:38:48;7.10;;;6.50;;
15307;SDS011;7755;52.208;6.964;2022-09-09T23:42:50;7.80;;;7.10;;
15307;SDS011;7755;52.208;6.964;2022-09-09T23:46:54;8.30;;;7.50;;
15307;SDS011;7755;52.208;6.964;2022-09-09T23:50:56;8.13;;;7.43;;
15307;SDS011;7755;52.208;6.964;2022-09-09T23:54:58;9.60;;;8.60;;
15307;SDS011;7755;52.208;6.964;2022-09-09T23:59:00;8.70;;;7.80;;
